Maersk Dominica — A8IY4 — position and weather

sailwx.info

Track history (hours):
 
Tides and Currents Weather Stations Pressure Air Temp Water Temp Dewpoint Dewpoint Depression Visibility Wind Speed Wind Dir Waves Ship Positions

Maersk Dominica

Last reported at 2018-Feb-13 10:45 UTC. Time now 2018-Feb-17 23:58 UTC.
Position N 49°49' W 005°09'.

Length 281 m; beam 32.2 m; draft 12.5 m.

Type: Ship (hazmat cat A). MMSI: 636016437.

Date/timePositionNaut miles runAvg speedWind from/ knotsBaromVisibWave heightAir tempDewpointWater temp
2018-Feb-13 10:45N 49°49' W 005°09'417.2
2018-Feb-13 10:30N 49°52' W 005°05'917.6
2018-Feb-13 09:59N 49°58' W 004°54'510.7
2018-Feb-13 09:30N 49°60' W 004°46'3 6.6
2018-Feb-13 09:00N 49°60' W 004°41'3 6.5
2018-Feb-13 08:30N 50°00' W 004°36'3 6.5
2018-Feb-13 08:00N 50°00' W 004°31'3 5.9
2018-Feb-13 07:30N 49°60' W 004°27'2 5.1
2018-Feb-13 07:00N 49°60' W 004°23'1 2.8
2018-Feb-13 06:30N 49°60' W 004°20'3 5.4
2018-Feb-13 06:00N 49°60' W 004°16'3 5.2
2018-Feb-13 05:30N 50°00' W 004°12'2 4.6
2018-Feb-13 05:00N 49°60' W 004°09'2 3.8
2018-Feb-13 04:30N 50°00' W 004°06'1 2.9
2018-Feb-13 04:00N 50°00' W 004°03'1 2.8
2018-Feb-13 03:30N 50°00' W 004°01'2 3.3
2018-Feb-13 03:00N 50°00' W 003°59'2 3.8
2018-Feb-13 02:30N 50°00' W 003°56'2 4.1
2018-Feb-13 01:58N 50°00' W 003°52'2 4.5
2018-Feb-13 01:30N 50°00' W 003°49'3 4.7
2018-Feb-13 00:57N 50°00' W 003°45'2 5.0
2018-Feb-13 00:30N 50°00' W 003°42'3 5.4
2018-Feb-13 00:00N 50°00' W 003°37'3 5.4
2018-Feb-12 23:30N 50°00' W 003°33'3 5.6
2018-Feb-12 23:00N 49°60' W 003°29'3 5.7
2018-Feb-12 22:28N 49°60' W 003°24'2 5.4
2018-Feb-12 22:00N 49°60' W 003°20'3 5.3
2018-Feb-12 21:30N 50°00' W 003°16'2 5.0
2018-Feb-12 21:00N 50°00' W 003°12'3 5.2
2018-Feb-12 20:30N 50°00' W 003°08'2 4.5
2018-Feb-12 20:00N 50°00' W 003°05'2 4.5
2018-Feb-12 19:30N 49°60' W 003°01'3 5.2
2018-Feb-12 19:00N 50°00' W 002°57'2 4.0
2018-Feb-12 18:30N 50°00' W 002°54'2 4.2
2018-Feb-12 18:00N 50°00' W 002°51'3 5.3
2018-Feb-12 17:30N 49°60' W 002°47'3 6.0
2018-Feb-12 17:00N 49°60' W 002°42'612.5
2018-Feb-12 16:30N 50°01' W 002°33'2919.5
2018-Feb-12 15:01N 50°09' W 001°49'019.9
2018-Feb-12 15:00N 50°09' W 001°49'1020.6
2018-Feb-12 14:30N 50°12' W 001°33'1121.3
2018-Feb-12 14:00N 50°15' W 001°17'3222.0
2018-Feb-12 12:32N 50°25' W 000°29'121.5
2018-Feb-12 12:31N 50°25' W 000°28'1121.5
2018-Feb-12 12:01N 50°27' W 000°12'1121.2
2018-Feb-12 11:31N 50°30' E 000°04'1020.9
2018-Feb-12 11:01N 50°32' E 000°20'1020.5
2018-Feb-12 10:31N 50°35' E 000°36'1020.2
2018-Feb-12 10:01N 50°41' E 000°49'1019.8
2018-Feb-12 09:31N 50°46' E 001°02'1019.4
2018-Feb-12 09:01N 50°52' E 001°14'1019.7
2018-Feb-12 08:31N 50°59' E 001°24'1019.9
2018-Feb-12 08:00N 51°07' E 001°35'1020.1
2018-Feb-12 07:31N 51°14' E 001°46'1020.8
2018-Feb-12 07:01N 51°23' E 001°54'1021.0
2018-Feb-12 06:30N 51°32' E 002°03'1020.5
2018-Feb-12 06:00N 51°40' E 002°14'1020.5
2018-Feb-12 05:30N 51°48' E 002°25'4217.2
2018-Feb-12 03:02N 52°03' E 003°29'016.5
2018-Feb-12 03:01N 52°03' E 003°30'816.3
2018-Feb-12 02:30N 52°04' E 003°43'815.2
2018-Feb-12 02:00N 52°03' E 003°55'2 3.7
2018-Feb-12 01:31N 52°01' E 003°57'611.4
2018-Feb-12 01:00N 51°58' E 004°05'1 2.2
2018-Feb-12 00:30N 51°58' E 004°04'0 0.1
2018-Feb-11 23:58N 51°58' E 004°04'0 0.0
2018-Feb-11 23:28N 51°58' E 004°04'0 0.0
2018-Feb-11 22:58N 51°58' E 004°04'0 0.0
2018-Feb-11 22:28N 51°58' E 004°04'0 0.0
2018-Feb-11 21:58N 51°58' E 004°04'0 0.0
2018-Feb-11 21:28N 51°58' E 004°04'0 0.0
2018-Feb-11 20:58N 51°58' E 004°04'0 0.0
2018-Feb-11 20:28N 51°58' E 004°04'0 0.0
2018-Feb-11 19:58N 51°58' E 004°04'0 0.0
2018-Feb-11 19:28N 51°58' E 004°04'0 0.0
2018-Feb-11 18:58N 51°58' E 004°04'0 0.0
2018-Feb-11 18:28N 51°58' E 004°04'0 0.0
2018-Feb-11 17:58N 51°58' E 004°04'0 0.0
2018-Feb-11 17:28N 51°58' E 004°04'0 0.0
2018-Feb-11 16:58N 51°58' E 004°04'0 0.0
2018-Feb-11 16:28N 51°58' E 004°04'0 0.0
2018-Feb-11 15:58N 51°58' E 004°04'0 0.0
2018-Feb-11 15:28N 51°58' E 004°04'0 0.0
2018-Feb-11 14:58N 51°58' E 004°04'0 0.0
2018-Feb-11 14:28N 51°58' E 004°04'0 0.0
2018-Feb-11 13:58N 51°58' E 004°04'0 0.0
2018-Feb-11 13:28N 51°58' E 004°04'0 0.0
2018-Feb-11 12:58N 51°58' E 004°04'0 0.0
2018-Feb-11 12:28N 51°58' E 004°04'0 0.0
2018-Feb-11 11:58N 51°58' E 004°04'0 0.0
2018-Feb-11 11:30N 51°58' E 004°04'1 1.7
2018-Feb-11 11:00N 51°58' E 004°05'4 7.7
2018-Feb-11 10:30N 51°60' E 003°60'5 9.8
2018-Feb-11 10:00N 51°59' E 003°52'1 1.5
2018-Feb-11 09:30N 51°58' E 003°53'1 2.7
2018-Feb-11 09:00N 51°59' E 003°55'3 5.1
2018-Feb-11 08:30N 51°58' E 003°51'2 3.6
2018-Feb-11 08:01N 51°59' E 003°54'1 2.2
2018-Feb-11 07:30N 51°60' E 003°53'4 7.0
2018-Feb-11 07:00N 51°60' E 003°47'4 8.3
2018-Feb-11 06:30N 51°60' E 003°41'2 4.2
2018-Feb-11 06:00N 51°59' E 003°37'1 1.2
2018-Feb-11 05:30N 51°59' E 003°36'1 1.2
2018-Feb-11 05:00N 51°59' E 003°36'1 2.7
2018-Feb-11 04:30N 51°58' E 003°34'1 1.9
2018-Feb-11 03:55N 51°58' E 003°33'2 2.0
2018-Feb-11 03:06N 51°57' E 003°30'197 7.2
2018-Feb-09 23:42N 53°52' E 007°56'315.0
2018-Feb-09 23:30N 53°51' E 008°01'917.2
2018-Feb-09 23:00N 53°45' E 008°12'418.2
2018-Feb-09 22:46N 53°43' E 008°18'518.7
2018-Feb-09 22:30N 53°39' E 008°24'714.0
2018-Feb-09 22:00N 53°35' E 008°32'0 0.0
2018-Feb-09 03:31N 53°34' E 008°32'510.6
2018-Feb-09 03:00N 53°38' E 008°26'11014.7
2018-Feb-08 19:30N 53°33' E 005°20'816.8
2018-Feb-08 19:00N 53°30' E 005°07'917.1
2018-Feb-08 18:30N 53°27' E 004°54'816.9
2018-Feb-08 18:00N 53°22' E 004°42'1717.3
2018-Feb-08 17:00N 53°07' E 004°29'4317.4
2018-Feb-08 14:30N 52°32' E 003°47'5616.0
2018-Feb-08 11:00N 51°40' E 003°12'45 4.8
2018-Feb-08 01:30N 51°18' E 004°16'0 0.0
2018-Feb-08 00:57N 51°18' E 004°16'0 0.0
2018-Feb-08 00:30N 51°18' E 004°16'0 0.0
2018-Feb-08 00:00N 51°18' E 004°16'0 0.0
2018-Feb-07 23:27N 51°18' E 004°16'0 0.0
2018-Feb-07 22:54N 51°18' E 004°16'0 0.0
2018-Feb-07 22:27N 51°18' E 004°16'0 0.0
2018-Feb-07 22:00N 51°18' E 004°16'0 0.0
2018-Feb-07 21:31N 51°18' E 004°16'0 0.0
2018-Feb-07 09:30N 51°18' E 004°15'0 0.0
2018-Feb-07 08:57N 51°18' E 004°15'0 0.0
2018-Feb-07 08:24N 51°18' E 004°15'0 0.0
2018-Feb-07 08:00N 51°18' E 004°15'0 0.0
2018-Feb-07 07:30N 51°18' E 004°15'0 0.0
2018-Feb-07 07:00N 51°18' E 004°15'0 0.0
2018-Feb-07 06:27N 51°18' E 004°15'0 0.0
2018-Feb-07 06:00N 51°18' E 004°15'0 0.0
2018-Feb-07 05:27N 51°18' E 004°15'0 0.0
2018-Feb-07 04:57N 51°18' E 004°15'0 0.0
2018-Feb-07 04:24N 51°18' E 004°15'0 0.0
2018-Feb-07 03:57N 51°18' E 004°15'0 0.0
2018-Feb-07 03:27N 51°18' E 004°15'0 0.0
2018-Feb-07 02:57N 51°18' E 004°15'0 0.0
2018-Feb-07 02:30N 51°18' E 004°15'0 0.0
2018-Feb-07 02:00N 51°18' E 004°15'0 0.0
2018-Feb-07 01:27N 51°18' E 004°15'0 0.0
2018-Feb-07 01:00N 51°18' E 004°15'0 0.1
2018-Feb-07 00:30N 51°18' E 004°16'4 4.0
2018-Feb-06 23:30N 51°21' E 004°14'20 8.0
2018-Feb-06 21:00N 51°25' E 003°42'5 9.6
2018-Feb-06 20:30N 51°26' E 003°35'4 9.1
2018-Feb-06 20:00N 51°25' E 003°28'612.5
2018-Feb-06 19:30N 51°24' E 003°18'816.6
2018-Feb-06 19:00N 51°24' E 003°04'510.2
2018-Feb-06 18:29N 51°29' E 003°02'815.4
2018-Feb-06 18:00N 51°35' E 003°10'814.9
2018-Feb-06 17:28N 51°43' E 003°13'4 7.1
2018-Feb-06 16:57N 51°45' E 003°08'1 1.6
2018-Feb-06 16:29N 51°45' E 003°08'0 0.5
2018-Feb-06 16:00N 51°45' E 003°07'0 0.8
2018-Feb-06 15:30N 51°45' E 003°07'1 1.3
2018-Feb-06 14:57N 51°46' E 003°08'1 1.8
2018-Feb-06 14:28N 51°47' E 003°09'2 2.0
2018-Feb-06 13:42N 51°48' E 003°10'1 2.1
2018-Feb-06 13:20N 51°49' E 003°11'1 2.0
2018-Feb-06 12:59N 51°49' E 003°12'2 3.9
2018-Feb-06 12:29N 51°50' E 003°15'16 9.3
2018-Feb-06 10:44N 52°03' E 003°30'417.0
2018-Feb-06 10:30N 52°04' E 003°36'1312.9
2018-Feb-06 09:30N 52°02' E 003°57'713.0
2018-Feb-06 09:00N 51°58' E 004°05'1 1.6
2018-Feb-06 08:30N 51°58' E 004°04'0 0.0
2018-Feb-06 08:00N 51°58' E 004°04'0 0.0
2018-Feb-06 07:30N 51°58' E 004°04'0 0.0
2018-Feb-06 07:00N 51°58' E 004°04'0 0.0
2018-Feb-06 06:30N 51°58' E 004°04'0 0.0
2018-Feb-06 06:00N 51°58' E 004°04'0 0.0
2018-Feb-06 05:30N 51°58' E 004°04'0 0.0
2018-Feb-06 05:00N 51°58' E 004°04'0 0.0
2018-Feb-06 04:30N 51°58' E 004°04'0 0.0
2018-Feb-06 04:00N 51°58' E 004°04'0 0.0
2018-Feb-06 03:30N 51°58' E 004°04'0 0.0
2018-Feb-06 03:00N 51°58' E 004°04'0 0.0
2018-Feb-06 02:30N 51°58' E 004°04'0 0.0
2018-Feb-06 01:57N 51°58' E 004°04'0 0.0
2018-Feb-06 01:27N 51°58' E 004°04'0 0.0
2018-Feb-06 00:57N 51°58' E 004°04'0 0.0
2018-Feb-06 00:30N 51°58' E 004°04'0 0.0
2018-Feb-06 00:00N 51°58' E 004°04'0 0.0
2018-Feb-05 23:30N 51°58' E 004°04'0 0.0
2018-Feb-05 23:00N 51°58' E 004°04'0 0.0
2018-Feb-05 22:30N 51°58' E 004°04'3 2.2
2018-Feb-05 21:00N 51°60' E 004°00'13 8.4
2018-Feb-05 19:29N 51°59' E 003°40'17 2.3
2018-Feb-05 12:10N 51°53' E 003°14'415.0
2018-Feb-05 11:54N 51°52' E 003°08'2014.8
2018-Feb-05 10:34N 51°45' E 002°38'215.1
2018-Feb-05 10:27N 51°44' E 002°36'715.0
2018-Feb-05 10:00N 51°39' E 002°28'815.4
2018-Feb-05 09:30N 51°34' E 002°19'815.6
2018-Feb-05 09:00N 51°28' E 002°11'1414.3
2018-Feb-05 08:01N 51°18' E 001°55'816.3
2018-Feb-05 07:30N 51°11' E 001°46'816.5
2018-Feb-05 07:01N 51°04' E 001°40'713.8
2018-Feb-05 06:31N 50°59' E 001°33'1717.0
2018-Feb-05 05:30N 50°43' E 001°22'5616.2
2018-Feb-05 02:02N 50°19' E 000°02'016.4
2018-Feb-05 02:00N 50°19' E 000°02'917.1
2018-Feb-05 01:30N 50°17' W 000°12'2218.1
2018-Feb-05 00:16N 50°11' W 000°45'818.8
2018-Feb-04 23:50N 50°09' W 000°57'619.1
2018-Feb-04 23:30N 50°07' W 001°07'1019.4
2018-Feb-04 23:01N 50°04' W 001°21'1019.6
2018-Feb-04 22:30N 50°01' W 001°36'1019.7
2018-Feb-04 22:00N 49°59' W 001°51'1019.3
2018-Feb-04 21:31N 49°57' W 002°05'  
Track history (hours):
 
Tides and Currents Weather Stations Pressure Air Temp Water Temp Dewpoint Dewpoint Depression Visibility Wind Speed Wind Dir Waves Ship Positions

Maersk Dominica

Last reported at 2018-Feb-13 10:45 UTC. Time now 2018-Feb-17 23:58 UTC.
Position N 49°49' W 005°09'.

Length 281 m; beam 32.2 m; draft 12.5 m.

Type: Ship (hazmat cat A). MMSI: 636016437.

Date/timePositionNaut miles runAvg speedWind from/ knotsBaromVisibWave heightAir tempDewpointWater temp
2018-Feb-13 10:45N 49°49' W 005°09'417.2
2018-Feb-13 10:30N 49°52' W 005°05'917.6
2018-Feb-13 09:59N 49°58' W 004°54'510.7
2018-Feb-13 09:30N 49°60' W 004°46'3 6.6
2018-Feb-13 09:00N 49°60' W 004°41'3 6.5
2018-Feb-13 08:30N 50°00' W 004°36'3 6.5
2018-Feb-13 08:00N 50°00' W 004°31'3 5.9
2018-Feb-13 07:30N 49°60' W 004°27'2 5.1
2018-Feb-13 07:00N 49°60' W 004°23'1 2.8
2018-Feb-13 06:30N 49°60' W 004°20'3 5.4
2018-Feb-13 06:00N 49°60' W 004°16'3 5.2
2018-Feb-13 05:30N 50°00' W 004°12'2 4.6
2018-Feb-13 05:00N 49°60' W 004°09'2 3.8
2018-Feb-13 04:30N 50°00' W 004°06'1 2.9
2018-Feb-13 04:00N 50°00' W 004°03'1 2.8
2018-Feb-13 03:30N 50°00' W 004°01'2 3.3
2018-Feb-13 03:00N 50°00' W 003°59'2 3.8
2018-Feb-13 02:30N 50°00' W 003°56'2 4.1
2018-Feb-13 01:58N 50°00' W 003°52'2 4.5
2018-Feb-13 01:30N 50°00' W 003°49'3 4.7
2018-Feb-13 00:57N 50°00' W 003°45'2 5.0
2018-Feb-13 00:30N 50°00' W 003°42'3 5.4
2018-Feb-13 00:00N 50°00' W 003°37'3 5.4
2018-Feb-12 23:30N 50°00' W 003°33'3 5.6
2018-Feb-12 23:00N 49°60' W 003°29'3 5.7
2018-Feb-12 22:28N 49°60' W 003°24'2 5.4
2018-Feb-12 22:00N 49°60' W 003°20'3 5.3
2018-Feb-12 21:30N 50°00' W 003°16'2 5.0
2018-Feb-12 21:00N 50°00' W 003°12'3 5.2
2018-Feb-12 20:30N 50°00' W 003°08'2 4.5
2018-Feb-12 20:00N 50°00' W 003°05'2 4.5
2018-Feb-12 19:30N 49°60' W 003°01'3 5.2
2018-Feb-12 19:00N 50°00' W 002°57'2 4.0
2018-Feb-12 18:30N 50°00' W 002°54'2 4.2
2018-Feb-12 18:00N 50°00' W 002°51'3 5.3
2018-Feb-12 17:30N 49°60' W 002°47'3 6.0
2018-Feb-12 17:00N 49°60' W 002°42'612.5
2018-Feb-12 16:30N 50°01' W 002°33'2919.5
2018-Feb-12 15:01N 50°09' W 001°49'019.9
2018-Feb-12 15:00N 50°09' W 001°49'1020.6
2018-Feb-12 14:30N 50°12' W 001°33'1121.3
2018-Feb-12 14:00N 50°15' W 001°17'3222.0
2018-Feb-12 12:32N 50°25' W 000°29'121.5
2018-Feb-12 12:31N 50°25' W 000°28'1121.5
2018-Feb-12 12:01N 50°27' W 000°12'1121.2
2018-Feb-12 11:31N 50°30' E 000°04'1020.9
2018-Feb-12 11:01N 50°32' E 000°20'1020.5
2018-Feb-12 10:31N 50°35' E 000°36'1020.2
2018-Feb-12 10:01N 50°41' E 000°49'1019.8
2018-Feb-12 09:31N 50°46' E 001°02'1019.4
2018-Feb-12 09:01N 50°52' E 001°14'1019.7
2018-Feb-12 08:31N 50°59' E 001°24'1019.9
2018-Feb-12 08:00N 51°07' E 001°35'1020.1
2018-Feb-12 07:31N 51°14' E 001°46'1020.8
2018-Feb-12 07:01N 51°23' E 001°54'1021.0
2018-Feb-12 06:30N 51°32' E 002°03'1020.5
2018-Feb-12 06:00N 51°40' E 002°14'1020.5
2018-Feb-12 05:30N 51°48' E 002°25'4217.2
2018-Feb-12 03:02N 52°03' E 003°29'016.5
2018-Feb-12 03:01N 52°03' E 003°30'816.3
2018-Feb-12 02:30N 52°04' E 003°43'815.2
2018-Feb-12 02:00N 52°03' E 003°55'2 3.7
2018-Feb-12 01:31N 52°01' E 003°57'611.4
2018-Feb-12 01:00N 51°58' E 004°05'1 2.2
2018-Feb-12 00:30N 51°58' E 004°04'0 0.1
2018-Feb-11 23:58N 51°58' E 004°04'0 0.0
2018-Feb-11 23:28N 51°58' E 004°04'0 0.0
2018-Feb-11 22:58N 51°58' E 004°04'0 0.0
2018-Feb-11 22:28N 51°58' E 004°04'0 0.0
2018-Feb-11 21:58N 51°58' E 004°04'0 0.0
2018-Feb-11 21:28N 51°58' E 004°04'0 0.0
2018-Feb-11 20:58N 51°58' E 004°04'0 0.0
2018-Feb-11 20:28N 51°58' E 004°04'0 0.0
2018-Feb-11 19:58N 51°58' E 004°04'0 0.0
2018-Feb-11 19:28N 51°58' E 004°04'0 0.0
2018-Feb-11 18:58N 51°58' E 004°04'0 0.0
2018-Feb-11 18:28N 51°58' E 004°04'0 0.0
2018-Feb-11 17:58N 51°58' E 004°04'0 0.0
2018-Feb-11 17:28N 51°58' E 004°04'0 0.0
2018-Feb-11 16:58N 51°58' E 004°04'0 0.0
2018-Feb-11 16:28N 51°58' E 004°04'0 0.0
2018-Feb-11 15:58N 51°58' E 004°04'0 0.0
2018-Feb-11 15:28N 51°58' E 004°04'0 0.0
2018-Feb-11 14:58N 51°58' E 004°04'0 0.0
2018-Feb-11 14:28N 51°58' E 004°04'0 0.0
2018-Feb-11 13:58N 51°58' E 004°04'0 0.0
2018-Feb-11 13:28N 51°58' E 004°04'0 0.0
2018-Feb-11 12:58N 51°58' E 004°04'0 0.0
2018-Feb-11 12:28N 51°58' E 004°04'0 0.0
2018-Feb-11 11:58N 51°58' E 004°04'0 0.0
2018-Feb-11 11:30N 51°58' E 004°04'1 1.7
2018-Feb-11 11:00N 51°58' E 004°05'4 7.7
2018-Feb-11 10:30N 51°60' E 003°60'5 9.8
2018-Feb-11 10:00N 51°59' E 003°52'1 1.5
2018-Feb-11 09:30N 51°58' E 003°53'1 2.7
2018-Feb-11 09:00N 51°59' E 003°55'3 5.1
2018-Feb-11 08:30N 51°58' E 003°51'2 3.6
2018-Feb-11 08:01N 51°59' E 003°54'1 2.2
2018-Feb-11 07:30N 51°60' E 003°53'4 7.0
2018-Feb-11 07:00N 51°60' E 003°47'4 8.3
2018-Feb-11 06:30N 51°60' E 003°41'2 4.2
2018-Feb-11 06:00N 51°59' E 003°37'1 1.2
2018-Feb-11 05:30N 51°59' E 003°36'1 1.2
2018-Feb-11 05:00N 51°59' E 003°36'1 2.7
2018-Feb-11 04:30N 51°58' E 003°34'1 1.9
2018-Feb-11 03:55N 51°58' E 003°33'2 2.0
2018-Feb-11 03:06N 51°57' E 003°30'197 7.2
2018-Feb-09 23:42N 53°52' E 007°56'315.0
2018-Feb-09 23:30N 53°51' E 008°01'917.2
2018-Feb-09 23:00N 53°45' E 008°12'418.2
2018-Feb-09 22:46N 53°43' E 008°18'518.7
2018-Feb-09 22:30N 53°39' E 008°24'714.0
2018-Feb-09 22:00N 53°35' E 008°32'0 0.0
2018-Feb-09 03:31N 53°34' E 008°32'510.6
2018-Feb-09 03:00N 53°38' E 008°26'11014.7
2018-Feb-08 19:30N 53°33' E 005°20'816.8
2018-Feb-08 19:00N 53°30' E 005°07'917.1
2018-Feb-08 18:30N 53°27' E 004°54'816.9
2018-Feb-08 18:00N 53°22' E 004°42'1717.3
2018-Feb-08 17:00N 53°07' E 004°29'4317.4
2018-Feb-08 14:30N 52°32' E 003°47'5616.0
2018-Feb-08 11:00N 51°40' E 003°12'45 4.8
2018-Feb-08 01:30N 51°18' E 004°16'0 0.0
2018-Feb-08 00:57N 51°18' E 004°16'0 0.0
2018-Feb-08 00:30N 51°18' E 004°16'0 0.0
2018-Feb-08 00:00N 51°18' E 004°16'0 0.0
2018-Feb-07 23:27N 51°18' E 004°16'0 0.0
2018-Feb-07 22:54N 51°18' E 004°16'0 0.0
2018-Feb-07 22:27N 51°18' E 004°16'0 0.0
2018-Feb-07 22:00N 51°18' E 004°16'0 0.0
2018-Feb-07 21:31N 51°18' E 004°16'0 0.0
2018-Feb-07 09:30N 51°18' E 004°15'0 0.0
2018-Feb-07 08:57N 51°18' E 004°15'0 0.0
2018-Feb-07 08:24N 51°18' E 004°15'0 0.0
2018-Feb-07 08:00N 51°18' E 004°15'0 0.0
2018-Feb-07 07:30N 51°18' E 004°15'0 0.0
2018-Feb-07 07:00N 51°18' E 004°15'0 0.0
2018-Feb-07 06:27N 51°18' E 004°15'0 0.0
2018-Feb-07 06:00N 51°18' E 004°15'0 0.0
2018-Feb-07 05:27N 51°18' E 004°15'0 0.0
2018-Feb-07 04:57N 51°18' E 004°15'0 0.0
2018-Feb-07 04:24N 51°18' E 004°15'0 0.0
2018-Feb-07 03:57N 51°18' E 004°15'0 0.0
2018-Feb-07 03:27N 51°18' E 004°15'0 0.0
2018-Feb-07 02:57N 51°18' E 004°15'0 0.0
2018-Feb-07 02:30N 51°18' E 004°15'0 0.0
2018-Feb-07 02:00N 51°18' E 004°15'0 0.0
2018-Feb-07 01:27N 51°18' E 004°15'0 0.0
2018-Feb-07 01:00N 51°18' E 004°15'0 0.1
2018-Feb-07 00:30N 51°18' E 004°16'4 4.0
2018-Feb-06 23:30N 51°21' E 004°14'20 8.0
2018-Feb-06 21:00N 51°25' E 003°42'5 9.6
2018-Feb-06 20:30N 51°26' E 003°35'4 9.1
2018-Feb-06 20:00N 51°25' E 003°28'612.5
2018-Feb-06 19:30N 51°24' E 003°18'816.6
2018-Feb-06 19:00N 51°24' E 003°04'510.2
2018-Feb-06 18:29N 51°29' E 003°02'815.4
2018-Feb-06 18:00N 51°35' E 003°10'814.9
2018-Feb-06 17:28N 51°43' E 003°13'4 7.1
2018-Feb-06 16:57N 51°45' E 003°08'1 1.6
2018-Feb-06 16:29N 51°45' E 003°08'0 0.5
2018-Feb-06 16:00N 51°45' E 003°07'0 0.8
2018-Feb-06 15:30N 51°45' E 003°07'1 1.3
2018-Feb-06 14:57N 51°46' E 003°08'1 1.8
2018-Feb-06 14:28N 51°47' E 003°09'2 2.0
2018-Feb-06 13:42N 51°48' E 003°10'1 2.1
2018-Feb-06 13:20N 51°49' E 003°11'1 2.0
2018-Feb-06 12:59N 51°49' E 003°12'2 3.9
2018-Feb-06 12:29N 51°50' E 003°15'16 9.3
2018-Feb-06 10:44N 52°03' E 003°30'417.0
2018-Feb-06 10:30N 52°04' E 003°36'1312.9
2018-Feb-06 09:30N 52°02' E 003°57'713.0
2018-Feb-06 09:00N 51°58' E 004°05'1 1.6
2018-Feb-06 08:30N 51°58' E 004°04'0 0.0
2018-Feb-06 08:00N 51°58' E 004°04'0 0.0
2018-Feb-06 07:30N 51°58' E 004°04'0 0.0
2018-Feb-06 07:00N 51°58' E 004°04'0 0.0
2018-Feb-06 06:30N 51°58' E 004°04'0 0.0
2018-Feb-06 06:00N 51°58' E 004°04'0 0.0
2018-Feb-06 05:30N 51°58' E 004°04'0 0.0
2018-Feb-06 05:00N 51°58' E 004°04'0 0.0
2018-Feb-06 04:30N 51°58' E 004°04'0 0.0
2018-Feb-06 04:00N 51°58' E 004°04'0 0.0
2018-Feb-06 03:30N 51°58' E 004°04'0 0.0
2018-Feb-06 03:00N 51°58' E 004°04'0 0.0
2018-Feb-06 02:30N 51°58' E 004°04'0 0.0
2018-Feb-06 01:57N 51°58' E 004°04'0 0.0
2018-Feb-06 01:27N 51°58' E 004°04'0 0.0
2018-Feb-06 00:57N 51°58' E 004°04'0 0.0
2018-Feb-06 00:30N 51°58' E 004°04'0 0.0
2018-Feb-06 00:00N 51°58' E 004°04'0 0.0
2018-Feb-05 23:30N 51°58' E 004°04'0 0.0
2018-Feb-05 23:00N 51°58' E 004°04'0 0.0
2018-Feb-05 22:30N 51°58' E 004°04'3 2.2
2018-Feb-05 21:00N 51°60' E 004°00'13 8.4
2018-Feb-05 19:29N 51°59' E 003°40'17 2.3
2018-Feb-05 12:10N 51°53' E 003°14'415.0
2018-Feb-05 11:54N 51°52' E 003°08'2014.8
2018-Feb-05 10:34N 51°45' E 002°38'215.1
2018-Feb-05 10:27N 51°44' E 002°36'715.0
2018-Feb-05 10:00N 51°39' E 002°28'815.4
2018-Feb-05 09:30N 51°34' E 002°19'815.6
2018-Feb-05 09:00N 51°28' E 002°11'1414.3
2018-Feb-05 08:01N 51°18' E 001°55'816.3
2018-Feb-05 07:30N 51°11' E 001°46'816.5
2018-Feb-05 07:01N 51°04' E 001°40'713.8
2018-Feb-05 06:31N 50°59' E 001°33'1717.0
2018-Feb-05 05:30N 50°43' E 001°22'5616.2
2018-Feb-05 02:02N 50°19' E 000°02'016.4
2018-Feb-05 02:00N 50°19' E 000°02'917.1
2018-Feb-05 01:30N 50°17' W 000°12'2218.1
2018-Feb-05 00:16N 50°11' W 000°45'818.8
2018-Feb-04 23:50N 50°09' W 000°57'619.1
2018-Feb-04 23:30N 50°07' W 001°07'1019.4
2018-Feb-04 23:01N 50°04' W 001°21'1019.6
2018-Feb-04 22:30N 50°01' W 001°36'1019.7
2018-Feb-04 22:00N 49°59' W 001°51'1019.3
2018-Feb-04 21:31N 49°57' W 002°05'  

Dump ship's entire track history